»·PEaware :: N714TW KMRY-KSBA

N714TW :: KMRY-KSBA

FLIGHT INFORMATION

Flight Status: Arrived
Operator: Privately registered:
United States
More flights under this callsign
Pilot: Peter S. (23284)
Aircraft: BEECH AIRCRAFT BARON
(BE58)
More flights by this aircraft type
Origin: KMRY Monterey Peninsula
United States
Destination: KSBA Santa Barbara Mun
United States
More flights between these airports :: More routes between these airports
Route: SHOEY V27 GVO
File this flight plan on PilotEdge
Remarks:
Altitude:
(Current/Filed)
7,000ft
Speed:
(Current/Filed)
150kts
Departed: 11-Jan-20 01:16 PM
Arrived: 11-Jan-20 02:26 PM
Distance/Time
Traveled:
162nm/1:10
Distance/Time
To Go:
Arrived

Flight Plot

Page will automatically refresh every two minutes.


Map Options




Map Legend


Flown Route
Filed Route
Departure Airport
Arrival Airport
Navaid (VOR, NDB)
Fix

Horizontal Profiles

Position Reports

Time Latitude Longitude Heading Altitude Ground
Speed
11-Jan-20 12:57 36.591881 -121.850267 167 259ft 0kts
11-Jan-20 12:58 36.591881 -121.850267 167 259ft 0kts
11-Jan-20 12:59 36.591881 -121.850267 167 259ft 0kts
11-Jan-20 13:00 36.591881 -121.850267 167 259ft 0kts
11-Jan-20 13:01 36.591881 -121.850267 167 259ft 0kts
11-Jan-20 13:02 36.591881 -121.850267 167 259ft 0kts
11-Jan-20 13:03 36.591881 -121.850267 167 259ft 0kts
11-Jan-20 13:03 36.591881 -121.850267 167 259ft 0kts
11-Jan-20 13:05 36.591881 -121.850267 167 259ft 0kts
11-Jan-20 13:06 36.591881 -121.850267 167 259ft 0kts
11-Jan-20 13:06 36.591880 -121.850267 168 259ft 0kts
11-Jan-20 13:08 36.591880 -121.850267 167 259ft 0kts
11-Jan-20 13:08 36.591675 -121.850443 233 259ft 5kts
11-Jan-20 13:09 36.591552 -121.850596 188 259ft 0kts
11-Jan-20 13:10 36.591552 -121.850596 188 259ft 0kts
11-Jan-20 13:11 36.591552 -121.850596 188 259ft 0kts
11-Jan-20 13:12 36.590901 -121.850986 171 259ft 9kts
11-Jan-20 13:14 36.587487 -121.843217 111 259ft 29kts
11-Jan-20 13:14 36.587007 -121.841798 113 259ft 0kts
11-Jan-20 13:15 36.586810 -121.843717 293 259ft 73kts
11-Jan-20 13:16 36.601830 -121.876801 339 1671ft 113kts
11-Jan-20 13:17 36.633720 -121.886272 340 3283ft 113kts
11-Jan-20 13:18 36.656926 -121.906164 265 4703ft 118kts
11-Jan-20 13:19 36.627251 -121.921220 191 6053ft 143kts
11-Jan-20 13:20 36.588006 -121.931137 206 6976ft 153kts
11-Jan-20 13:21 36.538887 -121.935626 192 7101ft 179kts
11-Jan-20 13:22 36.490210 -121.910901 147 6938ft 204kts
11-Jan-20 13:23 36.445069 -121.871033 147 6956ft 196kts
11-Jan-20 13:24 36.400330 -121.832057 147 6970ft 195kts
11-Jan-20 13:25 36.355803 -121.793368 147 6971ft 195kts
11-Jan-20 13:26 36.311165 -121.754624 147 6971ft 195kts
11-Jan-20 13:27 36.266640 -121.716015 147 7033ft 193kts
11-Jan-20 13:28 36.222156 -121.677526 147 7039ft 195kts
11-Jan-20 13:29 36.176589 -121.639895 157 6955ft 197kts
11-Jan-20 13:30 36.126222 -121.613328 160 6897ft 196kts
11-Jan-20 13:31 36.075985 -121.587283 158 6846ft 195kts
11-Jan-20 13:32 36.025972 -121.561225 157 6790ft 194kts
11-Jan-20 13:33 35.975919 -121.535152 157 6715ft 195kts
11-Jan-20 13:34 35.926521 -121.509459 156 6613ft 195kts
11-Jan-20 13:35 35.875911 -121.483161 156 6540ft 193kts
11-Jan-20 13:36 35.826648 -121.457586 156 6516ft 191kts
11-Jan-20 13:37 35.777871 -121.432232 155 6519ft 190kts
11-Jan-20 13:38 35.729108 -121.406909 155 6519ft 190kts
11-Jan-20 13:39 35.680316 -121.381689 156 6519ft 190kts
11-Jan-20 13:40 35.632144 -121.355268 139 6487ft 190kts
11-Jan-20 13:41 35.599041 -121.305573 123 6518ft 186kts
11-Jan-20 13:42 35.567869 -121.255717 123 6630ft 183kts
11-Jan-20 13:43 35.536304 -121.205709 123 6625ft 186kts
11-Jan-20 13:44 35.504471 -121.155444 123 6684ft 184kts
11-Jan-20 13:45 35.472708 -121.105301 123 6777ft 185kts
11-Jan-20 13:46 35.440626 -121.054761 123 6878ft 186kts
11-Jan-20 13:47 35.407928 -121.003339 123 6979ft 187kts
11-Jan-20 13:48 35.374738 -120.951219 123 7059ft 189kts
11-Jan-20 13:49 35.341127 -120.898527 123 7057ft 193kts
11-Jan-20 13:50 35.306874 -120.844926 123 7060ft 193kts
11-Jan-20 13:51 35.272370 -120.791005 122 7063ft 193kts
11-Jan-20 13:52 35.233852 -120.742000 140 7084ft 195kts
11-Jan-20 13:53 35.188652 -120.699894 140 7052ft 198kts
11-Jan-20 13:54 35.143399 -120.657704 140 7046ft 198kts
11-Jan-20 13:55 35.098895 -120.616152 142 7063ft 197kts
11-Jan-20 13:56 35.053813 -120.574104 143 7041ft 199kts
11-Jan-20 13:57 35.009246 -120.532607 144 7035ft 198kts
11-Jan-20 13:58 34.964935 -120.491405 145 7031ft 197kts
11-Jan-20 13:59 34.921154 -120.450752 146 7029ft 196kts
11-Jan-20 14:00 34.877631 -120.410392 146 7026ft 195kts
11-Jan-20 14:01 34.834280 -120.370247 146 7019ft 195kts
11-Jan-20 14:02 34.790871 -120.330095 146 7007ft 194kts
11-Jan-20 14:03 34.747732 -120.290213 146 6993ft 195kts
11-Jan-20 14:04 34.703853 -120.249712 146 6991ft 195kts
11-Jan-20 14:05 34.660030 -120.209343 145 6961ft 196kts
11-Jan-20 14:06 34.615738 -120.168600 146 6970ft 196kts
11-Jan-20 14:07 34.571878 -120.128283 146 6976ft 195kts
11-Jan-20 14:08 34.529731 -120.086241 124 6938ft 200kts
11-Jan-20 14:09 34.504085 -120.026549 119 6946ft 198kts
11-Jan-20 14:10 34.480415 -119.969766 122 6868ft 163kts
11-Jan-20 14:11 34.455030 -119.945982 191 6406ft 104kts
11-Jan-20 14:12 34.423985 -119.948291 192 5864ft 118kts
11-Jan-20 14:13 34.395861 -119.964383 231 5214ft 119kts
11-Jan-20 14:14 34.377046 -119.997586 231 4423ft 120kts
11-Jan-20 14:15 34.362754 -120.033276 261 3894ft 109kts
11-Jan-20 14:16 34.361516 -120.077898 262 3945ft 148kts
11-Jan-20 14:17 34.359118 -120.128930 271 3892ft 155kts
11-Jan-20 14:18 34.396454 -120.122964 51 3946ft 185kts
11-Jan-20 14:19 34.423671 -120.072619 83 3263ft 151kts
11-Jan-20 14:20 34.425893 -120.023453 102 2801ft 139kts
11-Jan-20 14:21 34.425671 -119.974732 98 2069ft 143kts
11-Jan-20 14:22 34.426076 -119.930807 93 1459ft 125kts
11-Jan-20 14:23 34.427043 -119.888888 95 614ft 99kts
11-Jan-20 14:24 34.427405 -119.855312 95 63ft 88kts
11-Jan-20 14:25 34.428583 -119.841915 354 17ft 3kts
11-Jan-20 14:26 34.431051 -119.838572 72 17ft 26kts
11-Jan-20 14:27 34.432022 -119.837891 157 17ft 0kts

Navigation Log

Ident Type
Flight plan parsing failed, navigation log unavailable